sensor_id;sensor_type;location;lat;lon;timestamp;P1;durP1;ratioP1;P2;durP2;ratioP2
4971;SDS011;2501;51.214;6.768;2022-12-18T00:00:12;20.02;;;10.63;;
4971;SDS011;2501;51.214;6.768;2022-12-18T00:02:41;23.75;;;11.90;;
4971;SDS011;2501;51.214;6.768;2022-12-18T00:05:10;20.15;;;11.10;;
4971;SDS011;2501;51.214;6.768;2022-12-18T00:07:38;23.98;;;12.45;;
4971;SDS011;2501;51.214;6.768;2022-12-18T00:10:07;18.30;;;10.57;;
4971;SDS011;2501;51.214;6.768;2022-12-18T00:12:38;21.92;;;11.85;;
4971;SDS011;2501;51.214;6.768;2022-12-18T00:15:07;23.63;;;13.00;;
4971;SDS011;2501;51.214;6.768;2022-12-18T00:17:36;20.90;;;11.60;;
4971;SDS011;2501;51.214;6.768;2022-12-18T00:20:05;23.30;;;11.73;;
4971;SDS011;2501;51.214;6.768;2022-12-18T00:22:34;25.70;;;12.80;;
4971;SDS011;2501;51.214;6.768;2022-12-18T00:25:03;22.70;;;12.43;;
4971;SDS011;2501;51.214;6.768;2022-12-18T00:27:32;25.23;;;13.07;;
4971;SDS011;2501;51.214;6.768;2022-12-18T00:30:03;22.50;;;12.25;;
4971;SDS011;2501;51.214;6.768;2022-12-18T00:32:32;24.80;;;13.00;;
4971;SDS011;2501;51.214;6.768;2022-12-18T00:35:01;24.05;;;12.38;;
4971;SDS011;2501;51.214;6.768;2022-12-18T00:37:29;27.97;;;12.13;;
4971;SDS011;2501;51.214;6.768;2022-12-18T00:39:58;26.02;;;12.70;;
4971;SDS011;2501;51.214;6.768;2022-12-18T00:42:26;29.20;;;12.20;;
4971;SDS011;2501;51.214;6.768;2022-12-18T00:45:10;25.88;;;12.25;;
4971;SDS011;2501;51.214;6.768;2022-12-18T00:47:38;27.47;;;12.37;;
4971;SDS011;2501;51.214;6.768;2022-12-18T00:50:07;25.65;;;13.25;;
4971;SDS011;2501;51.214;6.768;2022-12-18T00:52:37;25.65;;;13.10;;
4971;SDS011;2501;51.214;6.768;2022-12-18T00:55:05;33.72;;;13.32;;
4971;SDS011;2501;51.214;6.768;2022-12-18T00:57:34;26.67;;;12.50;;
4971;SDS011;2501;51.214;6.768;2022-12-18T01:00:03;27.58;;;12.10;;
4971;SDS011;2501;51.214;6.768;2022-12-18T01:02:36;22.90;;;12.13;;
4971;SDS011;2501;51.214;6.768;2022-12-18T01:05:05;35.05;;;15.63;;
4971;SDS011;2501;51.214;6.768;2022-12-18T01:07:34;24.67;;;12.90;;
4971;SDS011;2501;51.214;6.768;2022-12-18T01:10:03;36.83;;;15.32;;
4971;SDS011;2501;51.214;6.768;2022-12-18T01:12:32;36.42;;;15.57;;
4971;SDS011;2501;51.214;6.768;2022-12-18T01:15:00;25.40;;;13.55;;
4971;SDS011;2501;51.214;6.768;2022-12-18T01:17:29;37.50;;;15.23;;
4971;SDS011;2501;51.214;6.768;2022-12-18T01:20:00;29.45;;;13.70;;
4971;SDS011;2501;51.214;6.768;2022-12-18T01:22:28;22.38;;;12.80;;
4971;SDS011;2501;51.214;6.768;2022-12-18T01:24:57;28.20;;;12.93;;
4971;SDS011;2501;51.214;6.768;2022-12-18T01:27:25;25.80;;;13.82;;
4971;SDS011;2501;51.214;6.768;2022-12-18T01:29:54;26.42;;;13.38;;
4971;SDS011;2501;51.214;6.768;2022-12-18T01:32:22;26.23;;;13.65;;
4971;SDS011;2501;51.214;6.768;2022-12-18T01:34:50;23.67;;;13.95;;
4971;SDS011;2501;51.214;6.768;2022-12-18T01:37:21;27.33;;;14.63;;
4971;SDS011;2501;51.214;6.768;2022-12-18T01:39:51;26.63;;;13.07;;
4971;SDS011;2501;51.214;6.768;2022-12-18T01:42:20;28.25;;;13.25;;
4971;SDS011;2501;51.214;6.768;2022-12-18T01:45:01;26.25;;;13.70;;
4971;SDS011;2501;51.214;6.768;2022-12-18T01:47:33;21.30;;;12.03;;
4971;SDS011;2501;51.214;6.768;2022-12-18T01:50:06;18.05;;;11.07;;
4971;SDS011;2501;51.214;6.768;2022-12-18T01:52:39;20.27;;;12.38;;
4971;SDS011;2501;51.214;6.768;2022-12-18T01:55:11;24.13;;;12.52;;
4971;SDS011;2501;51.214;6.768;2022-12-18T01:57:40;18.27;;;10.63;;
4971;SDS011;2501;51.214;6.768;2022-12-18T02:00:10;17.73;;;10.90;;
4971;SDS011;2501;51.214;6.768;2022-12-18T02:02:41;21.50;;;10.73;;
4971;SDS011;2501;51.214;6.768;2022-12-18T02:05:11;22.92;;;12.13;;
4971;SDS011;2501;51.214;6.768;2022-12-18T02:07:45;24.45;;;11.60;;
4971;SDS011;2501;51.214;6.768;2022-12-18T02:10:26;19.30;;;10.93;;
4971;SDS011;2501;51.214;6.768;2022-12-18T02:13:01;21.05;;;11.02;;
4971;SDS011;2501;51.214;6.768;2022-12-18T02:15:39;17.50;;;10.75;;
4971;SDS011;2501;51.214;6.768;2022-12-18T02:18:17;17.90;;;10.30;;
4971;SDS011;2501;51.214;6.768;2022-12-18T02:20:49;17.58;;;10.40;;
4971;SDS011;2501;51.214;6.768;2022-12-18T02:23:30;19.50;;;10.93;;
4971;SDS011;2501;51.214;6.768;2022-12-18T02:26:17;18.27;;;10.45;;
4971;SDS011;2501;51.214;6.768;2022-12-18T02:28:49;20.67;;;10.50;;
4971;SDS011;2501;51.214;6.768;2022-12-18T02:31:22;22.60;;;12.18;;
4971;SDS011;2501;51.214;6.768;2022-12-18T02:33:53;18.15;;;10.77;;
4971;SDS011;2501;51.214;6.768;2022-12-18T02:36:24;16.13;;;10.95;;
4971;SDS011;2501;51.214;6.768;2022-12-18T02:38:56;17.13;;;10.30;;
4971;SDS011;2501;51.214;6.768;2022-12-18T02:41:28;16.77;;;10.20;;
4971;SDS011;2501;51.214;6.768;2022-12-18T02:44:00;21.13;;;10.57;;
4971;SDS011;2501;51.214;6.768;2022-12-18T02:46:35;17.88;;;10.57;;
4971;SDS011;2501;51.214;6.768;2022-12-18T02:49:12;19.13;;;10.63;;
4971;SDS011;2501;51.214;6.768;2022-12-18T02:51:50;15.75;;;10.45;;
4971;SDS011;2501;51.214;6.768;2022-12-18T02:54:26;18.88;;;10.13;;
4971;SDS011;2501;51.214;6.768;2022-12-18T02:57:08;18.60;;;10.48;;
4971;SDS011;2501;51.214;6.768;2022-12-18T02:59:46;19.05;;;10.30;;
4971;SDS011;2501;51.214;6.768;2022-12-18T03:02:21;19.73;;;11.75;;
4971;SDS011;2501;51.214;6.768;2022-12-18T03:04:55;16.85;;;10.30;;
4971;SDS011;2501;51.214;6.768;2022-12-18T03:07:33;17.15;;;10.25;;
4971;SDS011;2501;51.214;6.768;2022-12-18T03:10:06;15.63;;;10.38;;
4971;SDS011;2501;51.214;6.768;2022-12-18T03:12:40;19.50;;;10.93;;
4971;SDS011;2501;51.214;6.768;2022-12-18T03:15:13;14.57;;;9.50;;
4971;SDS011;2501;51.214;6.768;2022-12-18T03:17:45;15.93;;;9.75;;
4971;SDS011;2501;51.214;6.768;2022-12-18T03:20:20;16.98;;;10.02;;
4971;SDS011;2501;51.214;6.768;2022-12-18T03:22:51;17.45;;;10.70;;
4971;SDS011;2501;51.214;6.768;2022-12-18T03:25:23;17.02;;;10.18;;
4971;SDS011;2501;51.214;6.768;2022-12-18T03:27:58;18.73;;;10.30;;
4971;SDS011;2501;51.214;6.768;2022-12-18T03:30:29;14.37;;;9.20;;
4971;SDS011;2501;51.214;6.768;2022-12-18T03:33:02;16.77;;;9.68;;
4971;SDS011;2501;51.214;6.768;2022-12-18T03:35:36;18.77;;;9.63;;
4971;SDS011;2501;51.214;6.768;2022-12-18T03:38:07;20.05;;;9.60;;
4971;SDS011;2501;51.214;6.768;2022-12-18T03:40:50;16.83;;;10.20;;
4971;SDS011;2501;51.214;6.768;2022-12-18T03:43:29;15.98;;;9.88;;
4971;SDS011;2501;51.214;6.768;2022-12-18T03:46:06;18.30;;;9.45;;
4971;SDS011;2501;51.214;6.768;2022-12-18T03:48:41;14.37;;;9.70;;
4971;SDS011;2501;51.214;6.768;2022-12-18T03:51:14;15.52;;;10.23;;
4971;SDS011;2501;51.214;6.768;2022-12-18T03:53:50;14.45;;;9.25;;
4971;SDS011;2501;51.214;6.768;2022-12-18T03:56:21;15.82;;;9.48;;
4971;SDS011;2501;51.214;6.768;2022-12-18T03:58:55;16.17;;;9.70;;
4971;SDS011;2501;51.214;6.768;2022-12-18T04:01:26;13.70;;;8.93;;
4971;SDS011;2501;51.214;6.768;2022-12-18T04:04:00;15.98;;;9.75;;
4971;SDS011;2501;51.214;6.768;2022-12-18T04:06:30;16.17;;;9.65;;
4971;SDS011;2501;51.214;6.768;2022-12-18T04:09:05;17.67;;;9.40;;
4971;SDS011;2501;51.214;6.768;2022-12-18T04:11:34;16.50;;;9.77;;
4971;SDS011;2501;51.214;6.768;2022-12-18T04:14:05;16.05;;;10.20;;
4971;SDS011;2501;51.214;6.768;2022-12-18T04:16:33;17.15;;;10.48;;
4971;SDS011;2501;51.214;6.768;2022-12-18T04:19:01;12.98;;;9.30;;
4971;SDS011;2501;51.214;6.768;2022-12-18T04:21:30;18.00;;;9.63;;
4971;SDS011;2501;51.214;6.768;2022-12-18T04:23:58;15.55;;;9.20;;
4971;SDS011;2501;51.214;6.768;2022-12-18T04:26:27;18.15;;;9.90;;
4971;SDS011;2501;51.214;6.768;2022-12-18T04:28:55;15.68;;;9.85;;
4971;SDS011;2501;51.214;6.768;2022-12-18T04:31:26;17.33;;;10.10;;
4971;SDS011;2501;51.214;6.768;2022-12-18T04:33:55;19.02;;;10.70;;
4971;SDS011;2501;51.214;6.768;2022-12-18T04:36:23;13.70;;;9.63;;
4971;SDS011;2501;51.214;6.768;2022-12-18T04:38:51;12.57;;;8.50;;
4971;SDS011;2501;51.214;6.768;2022-12-18T04:41:20;13.30;;;8.45;;
4971;SDS011;2501;51.214;6.768;2022-12-18T04:43:48;15.37;;;9.40;;
4971;SDS011;2501;51.214;6.768;2022-12-18T04:46:17;16.45;;;9.80;;
4971;SDS011;2501;51.214;6.768;2022-12-18T04:48:48;18.70;;;9.82;;
4971;SDS011;2501;51.214;6.768;2022-12-18T04:51:16;12.13;;;8.70;;
4971;SDS011;2501;51.214;6.768;2022-12-18T04:53:45;17.48;;;9.50;;
4971;SDS011;2501;51.214;6.768;2022-12-18T04:56:14;13.27;;;9.00;;
4971;SDS011;2501;51.214;6.768;2022-12-18T04:58:44;14.27;;;9.23;;
4971;SDS011;2501;51.214;6.768;2022-12-18T05:01:13;15.90;;;9.57;;
4971;SDS011;2501;51.214;6.768;2022-12-18T05:03:42;17.13;;;9.30;;
4971;SDS011;2501;51.214;6.768;2022-12-18T05:06:14;17.13;;;9.60;;
4971;SDS011;2501;51.214;6.768;2022-12-18T05:08:42;14.95;;;9.38;;
4971;SDS011;2501;51.214;6.768;2022-12-18T05:11:11;15.65;;;10.18;;
4971;SDS011;2501;51.214;6.768;2022-12-18T05:13:42;13.82;;;9.25;;
4971;SDS011;2501;51.214;6.768;2022-12-18T05:16:11;17.65;;;10.05;;
4971;SDS011;2501;51.214;6.768;2022-12-18T05:18:41;20.27;;;10.55;;
4971;SDS011;2501;51.214;6.768;2022-12-18T05:21:09;15.05;;;9.05;;
4971;SDS011;2501;51.214;6.768;2022-12-18T05:23:40;14.10;;;8.68;;
4971;SDS011;2501;51.214;6.768;2022-12-18T05:26:08;17.45;;;10.02;;
4971;SDS011;2501;51.214;6.768;2022-12-18T05:28:41;16.02;;;8.93;;
4971;SDS011;2501;51.214;6.768;2022-12-18T05:31:11;15.10;;;9.30;;
4971;SDS011;2501;51.214;6.768;2022-12-18T05:33:39;17.88;;;10.05;;
4971;SDS011;2501;51.214;6.768;2022-12-18T05:36:08;18.65;;;10.15;;
4971;SDS011;2501;51.214;6.768;2022-12-18T05:38:40;16.23;;;10.10;;
4971;SDS011;2501;51.214;6.768;2022-12-18T05:41:08;14.68;;;8.95;;
4971;SDS011;2501;51.214;6.768;2022-12-18T05:43:37;14.73;;;8.95;;
4971;SDS011;2501;51.214;6.768;2022-12-18T05:46:07;15.35;;;9.55;;
4971;SDS011;2501;51.214;6.768;2022-12-18T05:48:39;15.43;;;9.07;;
4971;SDS011;2501;51.214;6.768;2022-12-18T05:51:08;13.02;;;8.15;;
4971;SDS011;2501;51.214;6.768;2022-12-18T05:53:40;17.35;;;9.13;;
4971;SDS011;2501;51.214;6.768;2022-12-18T05:56:10;14.40;;;9.48;;
4971;SDS011;2501;51.214;6.768;2022-12-18T05:58:41;15.93;;;9.45;;
4971;SDS011;2501;51.214;6.768;2022-12-18T06:01:10;12.68;;;8.38;;
4971;SDS011;2501;51.214;6.768;2022-12-18T06:03:40;14.20;;;9.07;;
4971;SDS011;2501;51.214;6.768;2022-12-18T06:06:13;15.95;;;10.10;;
4971;SDS011;2501;51.214;6.768;2022-12-18T06:08:45;12.98;;;8.40;;
4971;SDS011;2501;51.214;6.768;2022-12-18T06:11:16;17.37;;;9.20;;
4971;SDS011;2501;51.214;6.768;2022-12-18T06:13:46;17.48;;;9.82;;
4971;SDS011;2501;51.214;6.768;2022-12-18T06:16:17;13.20;;;8.70;;
4971;SDS011;2501;51.214;6.768;2022-12-18T06:18:45;16.80;;;9.90;;
4971;SDS011;2501;51.214;6.768;2022-12-18T06:21:14;15.80;;;9.10;;
4971;SDS011;2501;51.214;6.768;2022-12-18T06:23:45;17.97;;;10.50;;
4971;SDS011;2501;51.214;6.768;2022-12-18T06:26:13;16.90;;;9.40;;
4971;SDS011;2501;51.214;6.768;2022-12-18T06:28:42;15.02;;;9.45;;
4971;SDS011;2501;51.214;6.768;2022-12-18T06:31:11;15.88;;;10.10;;
4971;SDS011;2501;51.214;6.768;2022-12-18T06:33:39;15.13;;;8.70;;
4971;SDS011;2501;51.214;6.768;2022-12-18T06:36:09;16.77;;;10.38;;
4971;SDS011;2501;51.214;6.768;2022-12-18T06:38:39;19.17;;;9.98;;
4971;SDS011;2501;51.214;6.768;2022-12-18T06:41:13;18.70;;;10.93;;
4971;SDS011;2501;51.214;6.768;2022-12-18T06:43:43;16.98;;;10.40;;
4971;SDS011;2501;51.214;6.768;2022-12-18T06:46:11;17.70;;;10.25;;
4971;SDS011;2501;51.214;6.768;2022-12-18T06:48:40;17.70;;;10.35;;
4971;SDS011;2501;51.214;6.768;2022-12-18T06:51:09;17.77;;;9.63;;
4971;SDS011;2501;51.214;6.768;2022-12-18T06:53:37;15.57;;;9.50;;
4971;SDS011;2501;51.214;6.768;2022-12-18T06:56:06;16.90;;;9.50;;
4971;SDS011;2501;51.214;6.768;2022-12-18T06:58:38;16.17;;;10.23;;
4971;SDS011;2501;51.214;6.768;2022-12-18T07:01:08;17.58;;;10.05;;
4971;SDS011;2501;51.214;6.768;2022-12-18T07:03:38;13.33;;;9.03;;
4971;SDS011;2501;51.214;6.768;2022-12-18T07:06:12;17.60;;;10.15;;
4971;SDS011;2501;51.214;6.768;2022-12-18T07:08:41;22.67;;;10.20;;
4971;SDS011;2501;51.214;6.768;2022-12-18T07:11:10;17.25;;;10.00;;
4971;SDS011;2501;51.214;6.768;2022-12-18T07:13:41;16.98;;;10.68;;
4971;SDS011;2501;51.214;6.768;2022-12-18T07:16:10;18.60;;;9.10;;
4971;SDS011;2501;51.214;6.768;2022-12-18T07:18:40;17.00;;;9.63;;
4971;SDS011;2501;51.214;6.768;2022-12-18T07:21:09;22.13;;;11.25;;
4971;SDS011;2501;51.214;6.768;2022-12-18T07:23:38;18.13;;;10.05;;
4971;SDS011;2501;51.214;6.768;2022-12-18T07:26:07;19.23;;;9.45;;
4971;SDS011;2501;51.214;6.768;2022-12-18T07:28:37;14.95;;;9.45;;
4971;SDS011;2501;51.214;6.768;2022-12-18T07:31:11;25.30;;;11.00;;
4971;SDS011;2501;51.214;6.768;2022-12-18T07:33:41;22.08;;;11.10;;
4971;SDS011;2501;51.214;6.768;2022-12-18T07:36:12;19.15;;;9.88;;
4971;SDS011;2501;51.214;6.768;2022-12-18T07:38:41;21.98;;;10.70;;
4971;SDS011;2501;51.214;6.768;2022-12-18T07:41:10;21.92;;;11.05;;
4971;SDS011;2501;51.214;6.768;2022-12-18T07:43:40;20.48;;;10.38;;
4971;SDS011;2501;51.214;6.768;2022-12-18T07:46:12;23.30;;;11.05;;
4971;SDS011;2501;51.214;6.768;2022-12-18T07:48:42;23.55;;;10.60;;
4971;SDS011;2501;51.214;6.768;2022-12-18T07:51:11;21.65;;;11.40;;
4971;SDS011;2501;51.214;6.768;2022-12-18T07:53:40;18.58;;;10.00;;
4971;SDS011;2501;51.214;6.768;2022-12-18T07:56:10;18.75;;;9.73;;
4971;SDS011;2501;51.214;6.768;2022-12-18T07:58:39;23.73;;;10.80;;
4971;SDS011;2501;51.214;6.768;2022-12-18T08:01:12;25.70;;;12.80;;
4971;SDS011;2501;51.214;6.768;2022-12-18T08:03:40;17.33;;;9.90;;
4971;SDS011;2501;51.214;6.768;2022-12-18T08:06:09;18.50;;;10.50;;
4971;SDS011;2501;51.214;6.768;2022-12-18T08:08:38;18.67;;;11.10;;
4971;SDS011;2501;51.214;6.768;2022-12-18T08:11:07;19.83;;;11.38;;
4971;SDS011;2501;51.214;6.768;2022-12-18T08:13:35;23.00;;;11.83;;
4971;SDS011;2501;51.214;6.768;2022-12-18T08:16:04;21.17;;;10.98;;
4971;SDS011;2501;51.214;6.768;2022-12-18T08:18:37;18.53;;;10.33;;
4971;SDS011;2501;51.214;6.768;2022-12-18T08:21:08;17.23;;;10.15;;
4971;SDS011;2501;51.214;6.768;2022-12-18T08:23:37;17.95;;;9.80;;
4971;SDS011;2501;51.214;6.768;2022-12-18T08:26:06;15.57;;;9.47;;
4971;SDS011;2501;51.214;6.768;2022-12-18T08:28:35;17.20;;;10.48;;
4971;SDS011;2501;51.214;6.768;2022-12-18T08:31:03;21.15;;;10.13;;
4971;SDS011;2501;51.214;6.768;2022-12-18T08:33:32;18.38;;;9.75;;
4971;SDS011;2501;51.214;6.768;2022-12-18T08:36:04;18.63;;;10.10;;
4971;SDS011;2501;51.214;6.768;2022-12-18T08:38:33;19.90;;;10.85;;
4971;SDS011;2501;51.214;6.768;2022-12-18T08:41:03;18.27;;;10.90;;
4971;SDS011;2501;51.214;6.768;2022-12-18T08:43:33;14.20;;;9.85;;
4971;SDS011;2501;51.214;6.768;2022-12-18T08:46:14;14.68;;;10.50;;
4971;SDS011;2501;51.214;6.768;2022-12-18T08:48:43;19.30;;;11.30;;
4971;SDS011;2501;51.214;6.768;2022-12-18T08:51:15;16.60;;;10.30;;
4971;SDS011;2501;51.214;6.768;2022-12-18T08:53:44;17.52;;;10.25;;
4971;SDS011;2501;51.214;6.768;2022-12-18T08:56:13;20.15;;;11.43;;
4971;SDS011;2501;51.214;6.768;2022-12-18T08:58:42;18.95;;;10.38;;
4971;SDS011;2501;51.214;6.768;2022-12-18T09:01:11;15.30;;;9.80;;
4971;SDS011;2501;51.214;6.768;2022-12-18T09:03:43;18.40;;;10.67;;
4971;SDS011;2501;51.214;6.768;2022-12-18T09:06:16;17.35;;;9.90;;
4971;SDS011;2501;51.214;6.768;2022-12-18T09:08:45;19.23;;;9.93;;
4971;SDS011;2501;51.214;6.768;2022-12-18T09:11:15;18.80;;;10.23;;
4971;SDS011;2501;51.214;6.768;2022-12-18T09:13:46;20.83;;;11.03;;
4971;SDS011;2501;51.214;6.768;2022-12-18T09:16:15;15.20;;;9.30;;
4971;SDS011;2501;51.214;6.768;2022-12-18T09:18:44;19.50;;;10.27;;
4971;SDS011;2501;51.214;6.768;2022-12-18T09:21:17;16.17;;;10.00;;
4971;SDS011;2501;51.214;6.768;2022-12-18T09:23:49;17.10;;;10.35;;
4971;SDS011;2501;51.214;6.768;2022-12-18T09:26:18;16.92;;;10.27;;
4971;SDS011;2501;51.214;6.768;2022-12-18T09:28:46;16.60;;;9.50;;
4971;SDS011;2501;51.214;6.768;2022-12-18T09:31:17;17.23;;;10.10;;
4971;SDS011;2501;51.214;6.768;2022-12-18T09:33:49;17.13;;;9.90;;
4971;SDS011;2501;51.214;6.768;2022-12-18T09:36:20;17.08;;;10.50;;
4971;SDS011;2501;51.214;6.768;2022-12-18T09:38:49;18.02;;;10.05;;
4971;SDS011;2501;51.214;6.768;2022-12-18T09:41:23;16.38;;;10.00;;
4971;SDS011;2501;51.214;6.768;2022-12-18T09:44:04;14.90;;;9.30;;
4971;SDS011;2501;51.214;6.768;2022-12-18T09:46:40;16.60;;;9.90;;
4971;SDS011;2501;51.214;6.768;2022-12-18T09:49:14;16.45;;;10.00;;
4971;SDS011;2501;51.214;6.768;2022-12-18T09:51:49;16.58;;;10.18;;
4971;SDS011;2501;51.214;6.768;2022-12-18T09:54:23;18.27;;;10.30;;
4971;SDS011;2501;51.214;6.768;2022-12-18T09:56:54;17.87;;;10.50;;
4971;SDS011;2501;51.214;6.768;2022-12-18T09:59:23;16.75;;;9.38;;
4971;SDS011;2501;51.214;6.768;2022-12-18T10:01:55;17.58;;;10.20;;
4971;SDS011;2501;51.214;6.768;2022-12-18T10:04:24;14.13;;;9.38;;
4971;SDS011;2501;51.214;6.768;2022-12-18T10:07:01;16.52;;;8.60;;
4971;SDS011;2501;51.214;6.768;2022-12-18T10:09:37;15.80;;;9.60;;
4971;SDS011;2501;51.214;6.768;2022-12-18T10:12:12;20.65;;;9.93;;
4971;SDS011;2501;51.214;6.768;2022-12-18T10:14:50;17.55;;;9.95;;
4971;SDS011;2501;51.214;6.768;2022-12-18T10:17:26;16.50;;;9.70;;
4971;SDS011;2501;51.214;6.768;2022-12-18T10:20:02;18.17;;;9.82;;
4971;SDS011;2501;51.214;6.768;2022-12-18T10:22:43;17.88;;;10.43;;
4971;SDS011;2501;51.214;6.768;2022-12-18T10:25:22;18.52;;;9.85;;
4971;SDS011;2501;51.214;6.768;2022-12-18T10:27:54;15.82;;;9.30;;
4971;SDS011;2501;51.214;6.768;2022-12-18T10:30:25;17.35;;;10.30;;
4971;SDS011;2501;51.214;6.768;2022-12-18T10:32:58;19.33;;;10.70;;
4971;SDS011;2501;51.214;6.768;2022-12-18T10:35:28;18.20;;;10.60;;
4971;SDS011;2501;51.214;6.768;2022-12-18T10:38:04;19.90;;;10.80;;
4971;SDS011;2501;51.214;6.768;2022-12-18T10:40:49;18.33;;;10.05;;
4971;SDS011;2501;51.214;6.768;2022-12-18T10:43:20;16.27;;;9.68;;
4971;SDS011;2501;51.214;6.768;2022-12-18T10:46:00;17.70;;;10.27;;
4971;SDS011;2501;51.214;6.768;2022-12-18T10:48:33;17.37;;;9.80;;
4971;SDS011;2501;51.214;6.768;2022-12-18T10:51:04;17.52;;;10.38;;
4971;SDS011;2501;51.214;6.768;2022-12-18T10:53:37;17.10;;;10.05;;
4971;SDS011;2501;51.214;6.768;2022-12-18T10:56:05;17.35;;;9.38;;
4971;SDS011;2501;51.214;6.768;2022-12-18T10:58:35;16.90;;;9.32;;
4971;SDS011;2501;51.214;6.768;2022-12-18T11:01:07;18.80;;;9.93;;
4971;SDS011;2501;51.214;6.768;2022-12-18T11:03:37;17.87;;;9.43;;
4971;SDS011;2501;51.214;6.768;2022-12-18T11:06:08;15.52;;;9.95;;
4971;SDS011;2501;51.214;6.768;2022-12-18T11:08:42;15.30;;;9.65;;
4971;SDS011;2501;51.214;6.768;2022-12-18T11:11:16;21.80;;;10.48;;
4971;SDS011;2501;51.214;6.768;2022-12-18T11:13:55;16.73;;;9.52;;
4971;SDS011;2501;51.214;6.768;2022-12-18T11:16:29;17.85;;;9.70;;
4971;SDS011;2501;51.214;6.768;2022-12-18T11:19:09;16.20;;;9.20;;
4971;SDS011;2501;51.214;6.768;2022-12-18T11:21:51;18.60;;;10.70;;
4971;SDS011;2501;51.214;6.768;2022-12-18T11:24:24;22.27;;;10.45;;
4971;SDS011;2501;51.214;6.768;2022-12-18T11:26:57;17.50;;;10.30;;
4971;SDS011;2501;51.214;6.768;2022-12-18T11:29:34;15.90;;;10.00;;
4971;SDS011;2501;51.214;6.768;2022-12-18T11:35:11;25.42;;;11.80;;
4971;SDS011;2501;51.214;6.768;2022-12-18T11:37:46;17.40;;;10.55;;
4971;SDS011;2501;51.214;6.768;2022-12-18T11:40:22;18.77;;;11.00;;
4971;SDS011;2501;51.214;6.768;2022-12-18T11:42:57;21.95;;;11.18;;
4971;SDS011;2501;51.214;6.768;2022-12-18T11:45:33;19.40;;;11.03;;
4971;SDS011;2501;51.214;6.768;2022-12-18T11:48:09;20.98;;;10.80;;
4971;SDS011;2501;51.214;6.768;2022-12-18T11:50:44;20.55;;;11.93;;
4971;SDS011;2501;51.214;6.768;2022-12-18T11:53:16;26.40;;;12.43;;
4971;SDS011;2501;51.214;6.768;2022-12-18T11:58:46;24.33;;;12.03;;
4971;SDS011;2501;51.214;6.768;2022-12-18T12:01:23;20.83;;;11.75;;
4971;SDS011;2501;51.214;6.768;2022-12-18T12:04:03;21.35;;;12.52;;
4971;SDS011;2501;51.214;6.768;2022-12-18T12:07:04;21.07;;;12.77;;
4971;SDS011;2501;51.214;6.768;2022-12-18T12:09:41;22.02;;;11.35;;
4971;SDS011;2501;51.214;6.768;2022-12-18T12:12:22;22.60;;;12.23;;
4971;SDS011;2501;51.214;6.768;2022-12-18T12:15:12;23.05;;;12.40;;
4971;SDS011;2501;51.214;6.768;2022-12-18T12:17:52;21.90;;;11.65;;
4971;SDS011;2501;51.214;6.768;2022-12-18T12:20:31;21.45;;;12.57;;
4971;SDS011;2501;51.214;6.768;2022-12-18T12:23:12;25.23;;;13.20;;
4971;SDS011;2501;51.214;6.768;2022-12-18T12:25:49;21.17;;;12.07;;
4971;SDS011;2501;51.214;6.768;2022-12-18T12:28:28;21.65;;;12.70;;
4971;SDS011;2501;51.214;6.768;2022-12-18T12:31:11;23.63;;;13.02;;
4971;SDS011;2501;51.214;6.768;2022-12-18T12:33:49;20.08;;;11.75;;
4971;SDS011;2501;51.214;6.768;2022-12-18T12:36:26;23.15;;;13.35;;
4971;SDS011;2501;51.214;6.768;2022-12-18T12:39:05;21.08;;;13.07;;
4971;SDS011;2501;51.214;6.768;2022-12-18T12:41:38;29.13;;;13.90;;
4971;SDS011;2501;51.214;6.768;2022-12-18T12:44:25;25.98;;;13.55;;
4971;SDS011;2501;51.214;6.768;2022-12-18T12:46:59;21.02;;;13.00;;
4971;SDS011;2501;51.214;6.768;2022-12-18T12:49:32;22.08;;;13.13;;
4971;SDS011;2501;51.214;6.768;2022-12-18T12:52:04;22.58;;;13.73;;
4971;SDS011;2501;51.214;6.768;2022-12-18T12:54:35;23.92;;;13.60;;
4971;SDS011;2501;51.214;6.768;2022-12-18T12:57:05;23.55;;;13.32;;
4971;SDS011;2501;51.214;6.768;2022-12-18T12:59:46;22.93;;;13.37;;
4971;SDS011;2501;51.214;6.768;2022-12-18T13:02:21;27.08;;;14.07;;
4971;SDS011;2501;51.214;6.768;2022-12-18T13:04:54;25.97;;;14.87;;
4971;SDS011;2501;51.214;6.768;2022-12-18T13:07:29;24.50;;;13.98;;
4971;SDS011;2501;51.214;6.768;2022-12-18T13:12:55;27.30;;;14.90;;
4971;SDS011;2501;51.214;6.768;2022-12-18T13:15:25;22.90;;;14.23;;
4971;SDS011;2501;51.214;6.768;2022-12-18T13:18:04;23.85;;;13.77;;
4971;SDS011;2501;51.214;6.768;2022-12-18T13:20:45;26.00;;;15.23;;
4971;SDS011;2501;51.214;6.768;2022-12-18T13:23:19;28.83;;;15.25;;
4971;SDS011;2501;51.214;6.768;2022-12-18T13:25:54;26.80;;;13.80;;
4971;SDS011;2501;51.214;6.768;2022-12-18T13:28:48;30.35;;;15.13;;
4971;SDS011;2501;51.214;6.768;2022-12-18T13:34:29;26.42;;;15.30;;
4971;SDS011;2501;51.214;6.768;2022-12-18T13:39:56;28.92;;;15.80;;
4971;SDS011;2501;51.214;6.768;2022-12-18T13:42:31;28.50;;;16.00;;
4971;SDS011;2501;51.214;6.768;2022-12-18T13:45:35;24.85;;;14.63;;
4971;SDS011;2501;51.214;6.768;2022-12-18T13:48:16;27.63;;;15.23;;
4971;SDS011;2501;51.214;6.768;2022-12-18T13:50:57;28.60;;;15.50;;
4971;SDS011;2501;51.214;6.768;2022-12-18T13:53:30;28.58;;;15.90;;
4971;SDS011;2501;51.214;6.768;2022-12-18T13:59:12;28.58;;;16.80;;
4971;SDS011;2501;51.214;6.768;2022-12-18T14:01:47;30.27;;;15.30;;
4971;SDS011;2501;51.214;6.768;2022-12-18T14:04:22;31.10;;;16.20;;
4971;SDS011;2501;51.214;6.768;2022-12-18T14:06:53;31.77;;;17.20;;
4971;SDS011;2501;51.214;6.768;2022-12-18T14:09:27;28.88;;;15.82;;
4971;SDS011;2501;51.214;6.768;2022-12-18T14:11:58;32.93;;;16.77;;
4971;SDS011;2501;51.214;6.768;2022-12-18T14:14:41;35.88;;;17.42;;
4971;SDS011;2501;51.214;6.768;2022-12-18T14:17:12;29.37;;;16.67;;
4971;SDS011;2501;51.214;6.768;2022-12-18T14:19:46;27.63;;;15.32;;
4971;SDS011;2501;51.214;6.768;2022-12-18T14:22:17;28.42;;;16.33;;
4971;SDS011;2501;51.214;6.768;2022-12-18T14:25:04;32.50;;;17.05;;
4971;SDS011;2501;51.214;6.768;2022-12-18T14:27:42;29.43;;;16.10;;
4971;SDS011;2501;51.214;6.768;2022-12-18T14:33:00;32.25;;;16.00;;
4971;SDS011;2501;51.214;6.768;2022-12-18T14:35:36;33.67;;;17.55;;
4971;SDS011;2501;51.214;6.768;2022-12-18T14:38:09;29.20;;;16.97;;
4971;SDS011;2501;51.214;6.768;2022-12-18T14:40:52;29.63;;;16.83;;
4971;SDS011;2501;51.214;6.768;2022-12-18T14:43:25;30.75;;;17.30;;
4971;SDS011;2501;51.214;6.768;2022-12-18T14:45:55;35.03;;;17.33;;
4971;SDS011;2501;51.214;6.768;2022-12-18T14:48:31;33.30;;;16.88;;
4971;SDS011;2501;51.214;6.768;2022-12-18T14:51:12;34.80;;;20.13;;
4971;SDS011;2501;51.214;6.768;2022-12-18T14:53:45;33.65;;;16.95;;
4971;SDS011;2501;51.214;6.768;2022-12-18T14:56:16;33.23;;;17.40;;
4971;SDS011;2501;51.214;6.768;2022-12-18T14:58:47;35.15;;;18.00;;
4971;SDS011;2501;51.214;6.768;2022-12-18T15:01:18;30.73;;;17.48;;
4971;SDS011;2501;51.214;6.768;2022-12-18T15:03:49;29.97;;;17.30;;
4971;SDS011;2501;51.214;6.768;2022-12-18T15:06:23;29.10;;;17.40;;
4971;SDS011;2501;51.214;6.768;2022-12-18T15:08:55;34.10;;;18.15;;
4971;SDS011;2501;51.214;6.768;2022-12-18T15:11:25;31.85;;;18.38;;
4971;SDS011;2501;51.214;6.768;2022-12-18T15:13:57;34.45;;;18.50;;
4971;SDS011;2501;51.214;6.768;2022-12-18T15:16:25;29.33;;;17.38;;
4971;SDS011;2501;51.214;6.768;2022-12-18T15:18:54;34.58;;;17.65;;
4971;SDS011;2501;51.214;6.768;2022-12-18T15:21:25;35.38;;;19.15;;
4971;SDS011;2501;51.214;6.768;2022-12-18T15:23:56;33.55;;;17.63;;
4971;SDS011;2501;51.214;6.768;2022-12-18T15:26:24;32.33;;;18.17;;
4971;SDS011;2501;51.214;6.768;2022-12-18T15:28:53;32.80;;;18.47;;
4971;SDS011;2501;51.214;6.768;2022-12-18T15:31:24;32.42;;;17.95;;
4971;SDS011;2501;51.214;6.768;2022-12-18T15:34:10;32.80;;;17.08;;
4971;SDS011;2501;51.214;6.768;2022-12-18T15:36:43;32.97;;;17.30;;
4971;SDS011;2501;51.214;6.768;2022-12-18T15:39:12;35.13;;;18.40;;
4971;SDS011;2501;51.214;6.768;2022-12-18T15:41:41;35.00;;;18.52;;